Main page
METAR-TAF:

Airports :

Ciudad Del Este, Paraguay

Guaraní International Airport

latitude: 25-27-20S, longitude: 054-50-37W, elevation: 257 m

Current weather observation

The report was made 22 minutes ago, at 05:00 UTC
Wind 5 kt from the East
Temperature 18°C
Humidity 77%
Pressure 1017 hPa
Visibility 10 km or more
no clouds below 1500 m and no cumulonimbus

METAR: SGES 310500Z 10005KT CAVOK 18/14 Q1017

Time: 01:22 (05:22 UTC)

Forecast

The report was made 7 hours and 0 minutes ago, at 22:22 UTC
Forecast valid from 31 at 00 UTC to 01 at 00 UTC
Wind 5 kt from the East
Visibility 10 km or more
no clouds below 1500 m and no cumulonimbus
Becoming
from 31 at 13 UTC to 31 at 16 UTC
Wind 15 kt from the North
Visibility 10 km or more
no clouds below 1500 m and no cumulonimbus

TAF: SGES 302222Z 3100/0100 10005KT CAVOK TX29/3119Z TN18/3110Z BECMG 3113/3116 01015KT CAVOK

METAR-TAF

Weather observations and forecasts of more than 4000 airports (METAR and TAF reports).

The available stations are represented by yellow and red dots on the map.

Hover mouse over dot to see the name of the station.

Then click to see weather observations and forecasts.

To change the map : click on the green buttons with a black cross to zoom in, on the green button with a dash to zoom out, or on the green arrows for adjacent maps.


METAR-TAF: